createdAt,value
2023-05-03T00:02:02.638Z,99143.34
2023-05-03T00:04:29.221Z,99149.59
2023-05-03T00:06:56.048Z,99124.56
2023-05-03T00:09:22.837Z,99139.84
2023-05-03T00:11:49.482Z,99129.69
2023-05-03T00:14:16.114Z,99135.72
2023-05-03T00:16:42.915Z,99137.19
2023-05-03T00:19:17.658Z,99106.44
2023-05-03T00:21:51.139Z,99127.97
2023-05-03T00:24:17.633Z,99120.25
2023-05-03T00:26:44.222Z,99122.03
2023-05-03T00:29:10.762Z,99133.78
2023-05-03T00:31:37.474Z,99132.97
2023-05-03T00:34:04.045Z,99128.94
2023-05-03T00:36:31.035Z,99123.00
2023-05-03T00:38:57.530Z,99133.16
2023-05-03T00:41:24.406Z,99141.88
2023-05-03T00:43:51.234Z,99139.31
2023-05-03T00:46:18.149Z,99131.25
2023-05-03T00:48:48.037Z,99123.75
2023-05-03T00:51:16.035Z,99137.41
2023-05-03T00:53:43.048Z,99122.78
2023-05-03T00:56:11.161Z,99127.88
2023-05-03T00:58:40.257Z,99110.81
2023-05-03T01:01:07.708Z,99140.16
2023-05-03T01:03:36.493Z,99128.41
2023-05-03T01:06:13.639Z,99141.03
2023-05-03T01:08:53.868Z,99134.84
2023-05-03T01:11:27.208Z,99132.22
2023-05-03T01:14:06.244Z,99132.53
2023-05-03T01:16:54.035Z,99140.16
2023-05-03T01:19:26.893Z,99142.94
2023-05-03T01:22:02.706Z,99143.75
2023-05-03T01:24:32.109Z,99136.75
2023-05-03T01:26:59.242Z,99145.59
2023-05-03T01:29:25.935Z,99141.13
2023-05-03T01:32:03.892Z,99143.75
2023-05-03T01:34:54.985Z,99142.06
2023-05-03T01:37:21.842Z,99143.88
2023-05-03T01:40:16.935Z,99137.75
2023-05-03T01:42:43.812Z,99135.41
2023-05-03T01:45:11.442Z,99143.25
2023-05-03T01:47:38.290Z,99142.28
2023-05-03T01:50:05.826Z,99144.94
2023-05-03T01:52:33.650Z,99147.47
2023-05-03T01:55:00.378Z,99150.13
2023-05-03T01:57:26.921Z,99148.34
2023-05-03T01:59:53.484Z,99151.00
2023-05-03T02:02:20.680Z,99144.94
2023-05-03T02:04:47.460Z,99151.94
2023-05-03T02:07:14.192Z,99147.72
2023-05-03T02:09:40.723Z,99147.59
2023-05-03T02:12:07.961Z,99156.50
2023-05-03T02:14:34.681Z,99149.59
2023-05-03T02:17:03.179Z,99148.66
2023-05-03T02:19:29.983Z,99153.84
2023-05-03T02:21:57.034Z,99155.75
2023-05-03T02:24:23.654Z,99146.28
2023-05-03T02:26:50.660Z,99141.53
2023-05-03T02:29:17.231Z,99149.50
2023-05-03T02:31:45.389Z,99149.50
2023-05-03T02:34:12.510Z,99146.84
2023-05-03T02:36:39.369Z,99153.09
2023-05-03T02:39:05.933Z,99140.03
2023-05-03T02:41:33.239Z,99156.59
2023-05-03T02:44:00.895Z,99149.59
2023-05-03T02:46:27.903Z,99154.91
2023-05-03T02:48:54.643Z,99154.06
2023-05-03T02:51:21.211Z,99143.00
2023-05-03T02:53:48.169Z,99154.91
2023-05-03T02:56:14.727Z,99151.41
2023-05-03T02:58:41.251Z,99154.06
2023-05-03T03:01:08.091Z,99150.56
2023-05-03T03:03:34.843Z,99154.16
2023-05-03T03:06:01.976Z,99163.81
2023-05-03T03:08:28.915Z,99156.81
2023-05-03T03:10:59.612Z,99157.66
2023-05-03T03:13:26.180Z,99116.94
2023-05-03T03:15:52.987Z,99167.41
2023-05-03T03:18:19.881Z,99159.53
2023-05-03T03:20:46.704Z,99162.19
2023-05-03T03:23:13.305Z,99113.72
2023-05-03T03:25:41.918Z,99148.19
2023-05-03T03:28:08.777Z,99163.13
2023-05-03T03:30:35.814Z,99157.31
2023-05-03T03:33:15.953Z,99164.84
2023-05-03T03:35:42.842Z,99164.09
2023-05-03T03:38:11.075Z,99163.13
2023-05-03T03:40:44.406Z,99155.59
2023-05-03T03:43:11.282Z,99153.81
2023-05-03T03:45:38.063Z,99169.28
2023-05-03T03:48:06.044Z,99167.59
2023-05-03T03:50:34.096Z,99161.44
2023-05-03T03:53:01.080Z,99152.44
2023-05-03T03:55:28.235Z,99168.53
2023-05-03T03:57:57.782Z,99165.25
2023-05-03T04:00:26.109Z,99167.78
2023-05-03T04:03:03.607Z,99173.84
2023-05-03T04:05:32.387Z,99181.69
2023-05-03T04:07:59.201Z,99177.44
2023-05-03T04:10:28.827Z,99182.75
2023-05-03T04:12:55.876Z,99188.91
2023-05-03T04:15:23.154Z,99185.38
2023-05-03T04:17:50.770Z,99183.59
2023-05-03T04:20:18.218Z,99185.38
2023-05-03T04:22:48.056Z,99188.91
2023-05-03T04:25:18.297Z,99188.34
2023-05-03T04:27:52.287Z,99197.81
2023-05-03T04:30:20.097Z,99198.75
2023-05-03T04:32:54.102Z,99196.09
2023-05-03T04:35:21.850Z,99202.25
2023-05-03T04:37:48.421Z,99199.59
2023-05-03T04:40:23.058Z,99206.59
2023-05-03T04:42:59.236Z,99206.72
2023-05-03T04:45:27.160Z,99206.72
2023-05-03T04:47:54.526Z,99209.34
2023-05-03T04:50:21.329Z,99214.75
2023-05-03T04:52:50.536Z,99209.53
2023-05-03T04:55:18.496Z,99209.53
2023-05-03T04:57:45.599Z,99209.53
2023-05-03T05:00:14.418Z,99214.84
2023-05-03T05:02:45.790Z,99222.78
2023-05-03T05:05:13.927Z,99218.47
2023-05-03T05:07:41.695Z,99220.16
2023-05-03T05:10:10.383Z,99221.13
2023-05-03T05:12:37.047Z,99225.56
2023-05-03T05:15:06.404Z,99236.16
2023-05-03T05:17:33.118Z,99218.25
2023-05-03T05:20:01.814Z,99233.41
2023-05-03T05:22:29.538Z,99228.50
2023-05-03T05:24:59.171Z,99238.69
2023-05-03T05:27:29.412Z,99241.34
2023-05-03T05:29:57.738Z,99243.16
2023-05-03T05:32:24.581Z,99243.03
2023-05-03T05:34:55.294Z,99252.91
2023-05-03T05:37:27.610Z,99237.50
2023-05-03T05:39:57.474Z,99259.06
2023-05-03T05:42:27.028Z,99241.03
2023-05-03T05:44:53.663Z,99256.50
2023-05-03T05:47:21.789Z,99253.09
2023-05-03T05:49:50.732Z,99263.59
2023-05-03T05:52:17.384Z,99256.81
2023-05-03T05:54:44.064Z,99244.28
2023-05-03T05:57:12.844Z,99271.53
2023-05-03T05:59:40.775Z,99273.38
2023-05-03T06:02:14.808Z,99277.72
2023-05-03T06:04:42.171Z,99260.63
2023-05-03T06:07:08.928Z,99243.63
2023-05-03T06:09:35.506Z,99281.41
2023-05-03T06:12:04.719Z,99283.09
2023-05-03T06:14:33.372Z,99276.94
2023-05-03T06:17:00.843Z,99287.56
2023-05-03T06:19:27.436Z,99293.91
2023-05-03T06:21:53.962Z,99292.84
2023-05-03T06:24:21.449Z,99250.38
2023-05-03T06:26:50.894Z,99286.78
2023-05-03T06:29:18.199Z,99281.59
2023-05-03T06:31:44.883Z,99272.59
2023-05-03T06:34:12.720Z,99298.25
2023-05-03T06:36:42.171Z,99297.41
2023-05-03T06:39:09.449Z,99300.03
2023-05-03T06:41:36.073Z,99300.25
2023-05-03T06:44:04.229Z,99291.78
2023-05-03T06:46:31.375Z,99301.09
2023-05-03T06:48:58.176Z,99298.44
2023-05-03T06:51:30.516Z,99286.56
2023-05-03T06:54:01.953Z,99304.50
2023-05-03T06:56:28.614Z,99306.28
2023-05-03T06:58:55.129Z,99302.25
2023-05-03T07:01:21.835Z,99312.56
2023-05-03T07:03:48.396Z,99313.28
2023-05-03T07:06:15.440Z,99311.50
2023-05-03T07:08:42.597Z,99261.38
2023-05-03T07:11:09.988Z,99308.84
2023-05-03T07:13:36.594Z,99310.75
2023-05-03T07:16:03.905Z,99304.81
2023-05-03T07:18:30.682Z,99310.84
2023-05-03T07:20:57.284Z,99317.66
2023-05-03T07:23:23.901Z,99315.94
2023-05-03T07:25:50.409Z,99312.22
2023-05-03T07:28:17.125Z,99314.34
2023-05-03T07:30:43.810Z,99303.31
2023-05-03T07:33:10.562Z,99322.84
2023-05-03T07:35:37.135Z,99314.75
2023-05-03T07:38:03.847Z,99335.25
2023-05-03T07:40:33.112Z,99325.47
2023-05-03T07:43:00.469Z,99337.91
2023-05-03T07:45:27.330Z,99338.72
2023-05-03T07:47:56.495Z,99324.28
2023-05-03T07:50:23.123Z,99342.25
2023-05-03T07:52:52.573Z,99333.84
2023-05-03T07:55:20.442Z,99340.44
2023-05-03T07:57:47.080Z,99346.50
2023-05-03T08:00:14.238Z,99334.50
2023-05-03T08:02:41.414Z,99335.25
2023-05-03T08:05:09.739Z,99346.28
2023-05-03T08:07:36.729Z,99303.59
2023-05-03T08:10:03.518Z,99346.94
2023-05-03T08:12:30.621Z,99340.69
2023-05-03T08:14:57.188Z,99344.09
2023-05-03T08:17:24.009Z,99339.66
2023-05-03T08:19:50.980Z,99354.63
2023-05-03T08:22:18.209Z,99344.09
2023-05-03T08:24:44.750Z,99351.97
2023-05-03T08:27:12.450Z,99342.50
2023-05-03T08:29:39.079Z,99357.16
2023-05-03T08:32:06.008Z,99353.56
2023-05-03T08:34:32.737Z,99352.72
2023-05-03T08:36:59.555Z,99364.09
2023-05-03T08:39:31.122Z,99358.78
2023-05-03T08:41:58.605Z,99351.84
2023-05-03T08:44:29.311Z,99339.94
2023-05-03T08:46:56.157Z,99344.09
2023-05-03T08:49:24.043Z,99366.41
2023-05-03T08:51:51.749Z,99361.97
2023-05-03T08:54:20.745Z,99361.03
2023-05-03T08:56:47.781Z,99360.16
2023-05-03T08:59:16.442Z,99363.56
2023-05-03T09:01:43.345Z,99373.22
2023-05-03T09:04:11.915Z,99368.75
2023-05-03T09:06:39.169Z,99365.28
2023-05-03T09:09:08.045Z,99366.88
2023-05-03T09:11:38.816Z,99360.06
2023-05-03T09:14:12.290Z,99369.41
2023-05-03T09:16:40.853Z,99371.13
2023-05-03T09:19:11.585Z,99373.66
2023-05-03T09:21:40.211Z,99371.00
2023-05-03T09:24:14.723Z,99375.34
2023-05-03T09:26:42.409Z,99374.59
2023-05-03T09:29:09.707Z,99375.25
2023-05-03T09:31:37.339Z,99377.78
2023-05-03T09:34:21.631Z,99377.78
2023-05-03T09:36:48.514Z,99360.69
2023-05-03T09:39:19.730Z,99383.00
2023-05-03T09:41:46.828Z,99383.00
2023-05-03T09:44:13.643Z,99371.53
2023-05-03T09:46:40.259Z,99377.78
2023-05-03T09:49:06.968Z,99364.09
2023-05-03T09:51:34.028Z,99376.75
2023-05-03T09:54:01.244Z,99378.53
2023-05-03T09:56:28.953Z,99375.34
2023-05-03T09:58:55.597Z,99368.56
2023-05-03T10:01:24.901Z,99389.25
2023-05-03T10:03:54.785Z,99366.22
2023-05-03T10:06:29.921Z,99383.19
2023-05-03T10:09:21.984Z,99380.66
2023-05-03T10:11:52.526Z,99359.09
2023-05-03T10:14:23.976Z,99378.00
2023-05-03T10:16:58.177Z,99381.59
2023-05-03T10:19:33.624Z,99378.13
2023-05-03T10:22:11.249Z,99357.72
2023-05-03T10:25:02.699Z,99377.38
2023-05-03T10:27:43.144Z,99375.47
2023-05-03T10:30:28.701Z,99368.75
2023-05-03T10:32:55.634Z,99374.59
2023-05-03T10:35:27.427Z,99373.66
2023-05-03T10:37:56.943Z,99377.13
2023-05-03T10:40:23.621Z,99375.53
2023-05-03T10:42:56.157Z,99371.84
2023-05-03T10:45:25.377Z,99376.31
2023-05-03T10:48:10.651Z,99381.59
2023-05-03T10:50:38.384Z,99374.59
2023-05-03T10:53:05.449Z,99370.75
2023-05-03T10:55:32.869Z,99366.63
2023-05-03T10:58:01.007Z,99393.25
2023-05-03T11:00:36.922Z,99386.25
2023-05-03T11:03:18.501Z,99381.81
2023-05-03T11:05:48.083Z,99386.25
2023-05-03T11:08:22.407Z,99384.56
2023-05-03T11:11:00.335Z,99381.91
2023-05-03T11:13:28.000Z,99360.94
2023-05-03T11:15:56.301Z,99388.91
2023-05-03T11:18:24.719Z,99387.22
2023-05-03T11:20:53.816Z,99392.50
2023-05-03T11:23:25.576Z,99392.50
2023-05-03T11:28:18.903Z,99384.00
2023-05-03T11:30:47.039Z,99385.59
2023-05-03T11:33:13.615Z,99395.28
2023-05-03T11:35:40.630Z,99393.47
2023-05-03T11:38:07.201Z,99391.78
2023-05-03T11:40:33.829Z,99387.31
2023-05-03T11:43:01.925Z,99378.16
2023-05-03T11:45:38.363Z,99396.09
2023-05-03T11:48:05.314Z,99392.84
2023-05-03T11:50:51.564Z,99393.56
2023-05-03T11:53:18.887Z,99376.47
2023-05-03T11:55:49.268Z,99390.19
2023-05-03T11:58:20.605Z,99386.78
2023-05-03T12:00:51.673Z,99385.72
2023-05-03T12:03:25.951Z,99384.78
2023-05-03T12:05:57.359Z,99382.13
2023-05-03T12:08:36.714Z,99365.97
2023-05-03T12:11:09.466Z,99379.47
2023-05-03T12:13:39.940Z,99382.97
2023-05-03T12:16:13.705Z,99383.81
2023-05-03T12:19:03.145Z,99377.78
2023-05-03T12:21:55.379Z,99380.31
2023-05-03T12:24:34.425Z,99362.38
2023-05-03T12:27:02.718Z,99373.22
2023-05-03T12:29:34.814Z,99383.81
2023-05-03T12:32:03.433Z,99373.22
2023-05-03T12:34:34.928Z,99376.72
2023-05-03T12:37:05.337Z,99374.06
2023-05-03T12:39:33.617Z,99363.03
2023-05-03T12:44:35.136Z,99372.25
2023-05-03T12:47:02.876Z,99355.16
2023-05-03T12:49:30.206Z,99363.47
2023-05-03T12:52:21.550Z,99365.47
2023-05-03T12:54:49.068Z,99374.06
2023-05-03T12:57:22.644Z,99371.41
2023-05-03T12:59:53.945Z,99358.44
2023-05-03T13:05:00.142Z,99371.53
2023-05-03T13:07:30.424Z,99366.22
2023-05-03T13:12:28.396Z,99366.22
2023-05-03T13:14:55.757Z,99371.53
2023-05-03T13:17:23.392Z,99367.16
2023-05-03T13:19:51.637Z,99356.97
2023-05-03T13:22:18.422Z,99365.69
2023-05-03T13:24:47.157Z,99372.47
2023-05-03T13:27:14.622Z,99368.97
2023-05-03T13:29:41.723Z,99362.47
2023-05-03T13:32:09.556Z,99371.63
2023-05-03T13:34:36.737Z,99368.97
2023-05-03T13:37:06.673Z,99360.28
2023-05-03T13:39:33.329Z,99367.16
2023-05-03T13:42:00.093Z,99366.34
2023-05-03T13:44:26.845Z,99374.28
2023-05-03T13:46:53.683Z,99342.50
2023-05-03T13:49:20.674Z,99360.16
2023-05-03T13:51:47.591Z,99362.81
2023-05-03T13:54:14.415Z,99356.66
2023-05-03T13:56:43.980Z,99360.28
2023-05-03T13:59:13.683Z,99342.38
2023-05-03T14:01:43.045Z,99359.41
2023-05-03T14:04:10.315Z,99356.75
2023-05-03T14:06:40.087Z,99356.75
2023-05-03T14:09:07.862Z,99361.22
2023-05-03T14:11:34.577Z,99355.91
2023-05-03T14:14:02.343Z,99355.91
2023-05-03T14:18:58.573Z,99355.16
2023-05-03T14:21:25.175Z,99357.72
2023-05-03T14:23:52.095Z,99349.22
2023-05-03T14:26:22.394Z,99346.75
2023-05-03T14:28:48.998Z,99358.78
2023-05-03T14:31:16.499Z,99368.34
2023-05-03T14:33:43.545Z,99366.53
2023-05-03T14:36:10.554Z,99358.97
2023-05-03T14:38:37.520Z,99361.31
2023-05-03T14:41:04.547Z,99354.50
2023-05-03T14:43:32.181Z,99370.22
2023-05-03T14:45:58.840Z,99359.81
2023-05-03T14:48:25.552Z,99366.72
2023-05-03T14:50:53.180Z,99371.06
2023-05-03T14:53:21.542Z,99360.78
2023-05-03T14:55:48.161Z,99377.13
2023-05-03T14:58:14.717Z,99366.53
2023-05-03T15:00:42.428Z,99384.13
2023-05-03T15:03:12.910Z,99371.72
2023-05-03T15:05:44.387Z,99373.53
2023-05-03T15:08:13.162Z,99366.81
2023-05-03T15:10:39.806Z,99367.56
2023-05-03T15:13:07.270Z,99371.72
2023-05-03T15:15:33.896Z,99378.72
2023-05-03T15:18:01.168Z,99369.16
2023-05-03T15:20:29.124Z,99363.22
2023-05-03T15:22:55.825Z,99370.88
2023-05-03T15:25:22.584Z,99384.78
2023-05-03T15:27:49.641Z,99378.53
2023-05-03T15:30:17.304Z,99379.38
2023-05-03T15:32:44.472Z,99371.41
2023-05-03T15:35:11.979Z,99368.75
2023-05-03T15:37:39.100Z,99371.31
2023-05-03T15:40:09.196Z,99387.31
2023-05-03T15:42:36.831Z,99380.19
2023-05-03T15:45:05.955Z,99373.13
2023-05-03T15:47:33.379Z,99373.13
2023-05-03T15:50:00.440Z,99371.41
2023-05-03T15:52:28.058Z,99372.25
2023-05-03T15:54:56.191Z,99367.16
2023-05-03T15:57:23.674Z,99364.41
2023-05-03T15:59:50.321Z,99364.50
2023-05-03T16:02:17.182Z,99365.28
2023-05-03T16:04:44.400Z,99366.22
2023-05-03T16:07:12.809Z,99359.09
2023-05-03T16:09:39.592Z,99352.97
2023-05-03T16:12:07.492Z,99347.97
2023-05-03T16:14:35.188Z,99354.66
2023-05-03T16:17:04.710Z,99356.34
2023-05-03T16:19:32.063Z,99357.31
2023-05-03T16:21:59.098Z,99355.50
2023-05-03T16:24:25.843Z,99358.16
2023-05-03T16:26:52.998Z,99358.16
2023-05-03T16:29:19.811Z,99348.91
2023-05-03T16:31:47.430Z,99361.66
2023-05-03T16:34:14.439Z,99356.34
2023-05-03T16:36:45.424Z,99342.00
2023-05-03T16:39:14.313Z,99360.81
2023-05-03T16:41:42.163Z,99350.72
2023-05-03T16:44:09.219Z,99363.47
2023-05-03T16:46:38.996Z,99367.94
2023-05-03T16:49:07.140Z,99363.69
2023-05-03T16:51:34.003Z,99367.06
2023-05-03T16:54:03.103Z,99363.56
2023-05-03T16:56:31.305Z,99360.44
2023-05-03T16:58:59.109Z,99369.72
2023-05-03T17:01:27.386Z,99356.13
2023-05-03T17:03:54.261Z,99368.00
2023-05-03T17:06:23.732Z,99368.00
2023-05-03T17:08:50.380Z,99372.47
2023-05-03T17:11:17.069Z,99375.22
2023-05-03T17:13:44.543Z,99377.78
2023-05-03T17:16:15.096Z,99379.88
2023-05-03T17:18:43.466Z,99369.69
2023-05-03T17:23:41.402Z,99371.50
2023-05-03T17:26:10.194Z,99378.78
2023-05-03T17:28:37.087Z,99383.31
2023-05-03T17:31:06.216Z,99385.13
2023-05-03T17:33:33.787Z,99333.13
2023-05-03T17:36:07.123Z,99389.06
2023-05-03T17:38:34.587Z,99384.44
2023-05-03T17:41:08.507Z,99379.78
2023-05-03T17:43:41.422Z,99386.69
2023-05-03T17:46:13.633Z,99385.47
2023-05-03T17:48:44.458Z,99382.53
2023-05-03T17:51:14.325Z,99390.25
2023-05-03T17:53:42.580Z,99382.97
2023-05-03T17:56:16.792Z,99387.31
2023-05-03T17:58:44.730Z,99390.75
2023-05-03T18:01:13.220Z,99378.06
2023-05-03T18:03:44.534Z,99391.47
2023-05-03T18:06:13.151Z,99387.88
2023-05-03T18:08:43.189Z,99393.94
2023-05-03T18:11:09.909Z,99378.31
2023-05-03T18:13:36.715Z,99391.28
2023-05-03T18:16:08.150Z,99376.94
2023-05-03T18:18:35.127Z,99385.03
2023-05-03T18:21:03.683Z,99390.22
2023-05-03T18:23:31.614Z,99395.53
2023-05-03T18:26:02.695Z,99401.66
2023-05-03T18:28:30.367Z,99397.34
2023-05-03T18:30:57.001Z,99402.66
2023-05-03T18:33:23.929Z,99401.78
2023-05-03T18:35:51.936Z,99399.13
2023-05-03T18:38:21.876Z,99389.13
2023-05-03T18:41:05.920Z,99399.13
2023-05-03T18:43:39.201Z,99411.53
2023-05-03T18:46:05.925Z,99412.25
2023-05-03T18:48:32.544Z,99402.72
2023-05-03T18:51:02.444Z,99396.47
2023-05-03T18:53:34.220Z,99355.13
2023-05-03T18:56:07.812Z,99410.59
2023-05-03T18:58:42.554Z,99401.78
2023-05-03T19:01:15.892Z,99381.38
2023-05-03T19:03:42.589Z,99408.88
2023-05-03T19:06:09.391Z,99399.63
2023-05-03T19:08:39.504Z,99391.56
2023-05-03T19:11:08.452Z,99396.69
2023-05-03T19:13:38.018Z,99389.13
2023-05-03T19:16:05.215Z,99405.28
2023-05-03T19:18:32.207Z,99410.59
2023-05-03T19:21:00.064Z,99398.28
2023-05-03T19:23:32.889Z,99400.06
2023-05-03T19:26:08.696Z,99400.94
2023-05-03T19:28:42.111Z,99404.53
2023-05-03T19:31:27.191Z,99408.03
2023-05-03T19:33:54.313Z,99409.84
2023-05-03T19:36:33.075Z,99406.41
2023-05-03T19:39:00.465Z,99396.22
2023-05-03T19:41:28.444Z,99391.69
2023-05-03T19:43:55.866Z,99390.75
2023-05-03T19:46:22.929Z,99401.03
2023-05-03T19:48:49.751Z,99401.88
2023-05-03T19:51:28.084Z,99394.88
2023-05-03T19:53:55.601Z,99390.84
2023-05-03T19:56:25.202Z,99390.84
2023-05-03T19:58:52.158Z,99399.34
2023-05-03T20:01:21.809Z,99394.22
2023-05-03T20:03:48.889Z,99399.34
2023-05-03T20:06:15.641Z,99400.19
2023-05-03T20:08:42.610Z,99400.28
2023-05-03T20:11:09.201Z,99404.72
2023-05-03T20:13:35.936Z,99381.59
2023-05-03T20:16:08.028Z,99397.75
2023-05-03T20:18:34.793Z,99388.94
2023-05-03T20:21:04.455Z,99394.97
2023-05-03T20:23:32.171Z,99393.16
2023-05-03T20:25:58.741Z,99375.25
2023-05-03T20:28:25.803Z,99392.34
2023-05-03T20:30:52.829Z,99392.22
2023-05-03T20:33:21.015Z,99396.59
2023-05-03T20:35:50.521Z,99388.53
2023-05-03T20:38:17.243Z,99379.28
2023-05-03T20:40:43.732Z,99400.84
2023-05-03T20:43:11.066Z,99404.31
2023-05-03T20:45:37.824Z,99402.53
2023-05-03T20:48:05.143Z,99403.47
2023-05-03T20:50:31.828Z,99403.47
2023-05-03T20:52:58.536Z,99404.31
2023-05-03T20:55:25.245Z,99406.91
2023-05-03T20:57:52.066Z,99401.66
2023-05-03T21:00:21.017Z,99386.38
2023-05-03T21:02:53.305Z,99403.47
2023-05-03T21:05:21.826Z,99397.34
2023-05-03T21:07:48.755Z,99389.78
2023-05-03T21:10:15.387Z,99397.41
2023-05-03T21:12:42.106Z,99386.81
2023-05-03T21:15:09.449Z,99393.81
2023-05-03T21:17:36.180Z,99401.78
2023-05-03T21:22:30.211Z,99384.09
2023-05-03T21:24:56.806Z,99385.88
2023-05-03T21:27:23.427Z,99377.81
2023-05-03T21:29:50.053Z,99382.28
2023-05-03T21:32:16.546Z,99384.94
2023-05-03T21:34:43.192Z,99368.03
2023-05-03T21:37:09.959Z,99386.75
2023-05-03T21:39:36.989Z,99385.88
2023-05-03T21:42:04.031Z,99326.09
2023-05-03T21:44:31.462Z,99377.00
2023-05-03T21:46:58.108Z,99376.16
2023-05-03T21:49:24.932Z,99375.69
2023-05-03T21:51:51.530Z,99371.31
2023-05-03T21:54:19.118Z,99384.09
2023-05-03T21:56:45.661Z,99378.88
2023-05-03T21:59:12.750Z,99361.22
2023-05-03T22:01:39.347Z,99375.38
2023-05-03T22:04:09.209Z,99383.34
2023-05-03T22:06:36.131Z,99386.81
2023-05-03T22:09:02.720Z,99386.81
2023-05-03T22:11:29.591Z,99367.28
2023-05-03T22:14:06.557Z,99370.78
2023-05-03T22:16:34.278Z,99383.44
2023-05-03T22:19:04.246Z,99375.69
2023-05-03T22:21:31.958Z,99384.28
2023-05-03T22:23:58.521Z,99372.31
2023-05-03T22:26:26.151Z,99369.00
2023-05-03T22:28:52.792Z,99373.97
2023-05-03T22:31:21.948Z,99365.28
2023-05-03T22:33:49.038Z,99373.91
2023-05-03T22:36:16.045Z,99360.41
2023-05-03T22:38:43.259Z,99372.09
2023-05-03T22:41:10.289Z,99366.78
2023-05-03T22:43:37.056Z,99372.91
2023-05-03T22:46:03.914Z,99366.91
2023-05-03T22:48:32.641Z,99372.09
2023-05-03T22:50:59.723Z,99373.03
2023-05-03T22:53:26.280Z,99369.53
2023-05-03T22:56:06.580Z,99353.41
2023-05-03T22:58:34.772Z,99363.38
2023-05-03T23:01:01.360Z,99366.91
2023-05-03T23:03:28.162Z,99366.03
2023-05-03T23:05:54.791Z,99365.19
2023-05-03T23:08:22.266Z,99359.41
2023-05-03T23:10:49.264Z,99362.72
2023-05-03T23:13:16.533Z,99361.06
2023-05-03T23:15:43.138Z,99363.47
2023-05-03T23:18:09.798Z,99357.34
2023-05-03T23:20:36.579Z,99355.66
2023-05-03T23:23:03.237Z,99340.25
2023-05-03T23:25:29.868Z,99336.84
2023-05-03T23:27:56.621Z,99353.00
2023-05-03T23:30:26.150Z,99351.28
2023-05-03T23:32:53.522Z,99352.13
2023-05-03T23:35:21.263Z,99353.94
2023-05-03T23:37:47.832Z,99351.28
2023-05-03T23:40:14.403Z,99355.75
2023-05-03T23:42:41.361Z,99351.41
2023-05-03T23:45:09.556Z,99341.75
2023-05-03T23:47:36.833Z,99327.59
2023-05-03T23:50:03.849Z,99341.63
2023-05-03T23:52:30.727Z,99341.84
2023-05-03T23:54:57.338Z,99343.63
2023-05-03T23:57:23.903Z,99331.44
2023-05-03T23:59:50.403Z,99334.75
